sensor_id;sensor_type;location;lat;lon;timestamp;P1;durP1;ratioP1;P2;durP2;ratioP2
73219;SDS011;61434;43.538;-5.688;2022-12-20T00:01:15;3.38;;;0.90;;
73219;SDS011;61434;43.538;-5.688;2022-12-20T00:03:43;3.28;;;0.80;;
73219;SDS011;61434;43.538;-5.688;2022-12-20T00:06:10;3.70;;;1.00;;
73219;SDS011;61434;43.538;-5.688;2022-12-20T00:08:36;3.30;;;0.77;;
73219;SDS011;61434;43.538;-5.688;2022-12-20T00:11:03;3.40;;;0.80;;
73219;SDS011;61434;43.538;-5.688;2022-12-20T00:13:31;3.53;;;0.70;;
73219;SDS011;61434;43.538;-5.688;2022-12-20T00:18:31;3.60;;;0.90;;
73219;SDS011;61434;43.538;-5.688;2022-12-20T00:21:00;3.42;;;0.90;;
73219;SDS011;61434;43.538;-5.688;2022-12-20T00:23:27;3.38;;;1.00;;
73219;SDS011;61434;43.538;-5.688;2022-12-20T00:25:59;3.75;;;1.13;;
73219;SDS011;61434;43.538;-5.688;2022-12-20T00:28:35;3.70;;;0.80;;
73219;SDS011;61434;43.538;-5.688;2022-12-20T00:31:01;3.28;;;0.80;;
73219;SDS011;61434;43.538;-5.688;2022-12-20T00:33:28;3.35;;;1.05;;
73219;SDS011;61434;43.538;-5.688;2022-12-20T00:35:54;3.40;;;1.00;;
73219;SDS011;61434;43.538;-5.688;2022-12-20T00:38:21;3.72;;;0.95;;
73219;SDS011;61434;43.538;-5.688;2022-12-20T00:40:47;3.20;;;0.80;;
73219;SDS011;61434;43.538;-5.688;2022-12-20T00:43:22;3.55;;;0.80;;
73219;SDS011;61434;43.538;-5.688;2022-12-20T00:45:48;3.50;;;0.90;;
73219;SDS011;61434;43.538;-5.688;2022-12-20T00:48:13;3.10;;;0.80;;
73219;SDS011;61434;43.538;-5.688;2022-12-20T00:50:38;3.20;;;0.83;;
73219;SDS011;61434;43.538;-5.688;2022-12-20T00:53:04;4.47;;;0.90;;
73219;SDS011;61434;43.538;-5.688;2022-12-20T00:55:29;3.35;;;0.82;;
73219;SDS011;61434;43.538;-5.688;2022-12-20T00:57:55;4.53;;;1.10;;
73219;SDS011;61434;43.538;-5.688;2022-12-20T01:00:20;3.23;;;0.80;;
73219;SDS011;61434;43.538;-5.688;2022-12-20T01:02:46;3.40;;;0.90;;
73219;SDS011;61434;43.538;-5.688;2022-12-20T01:05:12;3.20;;;0.90;;
73219;SDS011;61434;43.538;-5.688;2022-12-20T01:07:37;3.93;;;1.03;;
73219;SDS011;61434;43.538;-5.688;2022-12-20T01:10:02;3.67;;;1.05;;
73219;SDS011;61434;43.538;-5.688;2022-12-20T01:12:28;3.40;;;0.80;;
73219;SDS011;61434;43.538;-5.688;2022-12-20T01:14:54;3.20;;;0.80;;
73219;SDS011;61434;43.538;-5.688;2022-12-20T01:17:19;4.47;;;0.80;;
73219;SDS011;61434;43.538;-5.688;2022-12-20T01:19:45;3.53;;;0.80;;
73219;SDS011;61434;43.538;-5.688;2022-12-20T01:22:10;3.73;;;0.90;;
73219;SDS011;61434;43.538;-5.688;2022-12-20T01:24:35;3.30;;;0.90;;
73219;SDS011;61434;43.538;-5.688;2022-12-20T01:27:01;4.10;;;0.80;;
73219;SDS011;61434;43.538;-5.688;2022-12-20T01:29:26;3.50;;;0.80;;
73219;SDS011;61434;43.538;-5.688;2022-12-20T01:31:52;3.33;;;0.90;;
73219;SDS011;61434;43.538;-5.688;2022-12-20T01:34:18;3.58;;;1.00;;
73219;SDS011;61434;43.538;-5.688;2022-12-20T01:36:44;3.63;;;0.80;;
73219;SDS011;61434;43.538;-5.688;2022-12-20T01:39:11;3.37;;;0.83;;
73219;SDS011;61434;43.538;-5.688;2022-12-20T01:41:38;3.63;;;0.80;;
73219;SDS011;61434;43.538;-5.688;2022-12-20T01:44:48;3.88;;;0.90;;
73219;SDS011;61434;43.538;-5.688;2022-12-20T01:46:49;3.53;;;1.13;;
73219;SDS011;61434;43.538;-5.688;2022-12-20T01:49:26;3.28;;;1.00;;
73219;SDS011;61434;43.538;-5.688;2022-12-20T01:55:12;4.05;;;0.80;;
73219;SDS011;61434;43.538;-5.688;2022-12-20T01:57:47;3.20;;;0.90;;
73219;SDS011;61434;43.538;-5.688;2022-12-20T02:00:16;3.30;;;0.82;;
73219;SDS011;61434;43.538;-5.688;2022-12-20T02:02:44;3.58;;;0.90;;
73219;SDS011;61434;43.538;-5.688;2022-12-20T02:05:11;3.10;;;0.90;;
73219;SDS011;61434;43.538;-5.688;2022-12-20T02:07:38;3.65;;;0.80;;
73219;SDS011;61434;43.538;-5.688;2022-12-20T02:10:07;4.10;;;1.15;;
73219;SDS011;61434;43.538;-5.688;2022-12-20T02:31:27;3.60;;;1.10;;
73219;SDS011;61434;43.538;-5.688;2022-12-20T02:34:13;3.10;;;0.60;;
73219;SDS011;61434;43.538;-5.688;2022-12-20T02:36:40;3.30;;;0.70;;
73219;SDS011;61434;43.538;-5.688;2022-12-20T02:39:14;3.20;;;0.88;;
73219;SDS011;61434;43.538;-5.688;2022-12-20T02:41:41;3.47;;;0.70;;
73219;SDS011;61434;43.538;-5.688;2022-12-20T02:44:13;3.22;;;0.70;;
73219;SDS011;61434;43.538;-5.688;2022-12-20T02:47:00;3.42;;;0.70;;
73219;SDS011;61434;43.538;-5.688;2022-12-20T02:49:29;3.58;;;0.90;;
73219;SDS011;61434;43.538;-5.688;2022-12-20T02:51:58;4.40;;;1.40;;
73219;SDS011;61434;43.538;-5.688;2022-12-20T02:54:25;3.90;;;1.10;;
73219;SDS011;61434;43.538;-5.688;2022-12-20T02:59:25;5.55;;;2.20;;
73219;SDS011;61434;43.538;-5.688;2022-12-20T03:01:56;9.40;;;3.28;;
73219;SDS011;61434;43.538;-5.688;2022-12-20T03:04:23;8.60;;;3.72;;
73219;SDS011;61434;43.538;-5.688;2022-12-20T03:06:56;7.57;;;3.20;;
73219;SDS011;61434;43.538;-5.688;2022-12-20T03:09:26;7.20;;;3.13;;
73219;SDS011;61434;43.538;-5.688;2022-12-20T03:11:52;8.60;;;3.70;;
73219;SDS011;61434;43.538;-5.688;2022-12-20T03:14:17;8.23;;;3.00;;
73219;SDS011;61434;43.538;-5.688;2022-12-20T03:16:43;8.83;;;3.03;;
73219;SDS011;61434;43.538;-5.688;2022-12-20T03:19:09;6.55;;;2.33;;
73219;SDS011;61434;43.538;-5.688;2022-12-20T03:21:34;5.30;;;1.50;;
73219;SDS011;61434;43.538;-5.688;2022-12-20T03:24:00;6.03;;;1.30;;
73219;SDS011;61434;43.538;-5.688;2022-12-20T03:26:25;5.97;;;1.40;;
73219;SDS011;61434;43.538;-5.688;2022-12-20T03:28:51;6.47;;;1.60;;
73219;SDS011;61434;43.538;-5.688;2022-12-20T03:31:17;5.20;;;1.50;;
73219;SDS011;61434;43.538;-5.688;2022-12-20T03:33:42;7.90;;;1.57;;
73219;SDS011;61434;43.538;-5.688;2022-12-20T03:36:07;9.40;;;1.75;;
73219;SDS011;61434;43.538;-5.688;2022-12-20T03:38:33;7.37;;;1.70;;
73219;SDS011;61434;43.538;-5.688;2022-12-20T03:40:58;8.70;;;1.50;;
73219;SDS011;61434;43.538;-5.688;2022-12-20T03:43:24;4.73;;;1.47;;
73219;SDS011;61434;43.538;-5.688;2022-12-20T03:45:49;6.28;;;1.80;;
73219;SDS011;61434;43.538;-5.688;2022-12-20T03:48:15;5.37;;;1.67;;
73219;SDS011;61434;43.538;-5.688;2022-12-20T03:50:40;5.17;;;1.77;;
73219;SDS011;61434;43.538;-5.688;2022-12-20T03:53:06;4.68;;;1.40;;
73219;SDS011;61434;43.538;-5.688;2022-12-20T03:55:32;6.67;;;1.60;;
73219;SDS011;61434;43.538;-5.688;2022-12-20T03:57:57;5.55;;;1.50;;
73219;SDS011;61434;43.538;-5.688;2022-12-20T04:00:23;9.77;;;1.43;;
73219;SDS011;61434;43.538;-5.688;2022-12-20T04:02:49;7.13;;;1.70;;
73219;SDS011;61434;43.538;-5.688;2022-12-20T04:05:14;6.83;;;1.90;;
73219;SDS011;61434;43.538;-5.688;2022-12-20T04:07:40;8.20;;;1.70;;
73219;SDS011;61434;43.538;-5.688;2022-12-20T04:10:06;5.65;;;1.70;;
73219;SDS011;61434;43.538;-5.688;2022-12-20T04:12:32;5.67;;;1.60;;
73219;SDS011;61434;43.538;-5.688;2022-12-20T04:14:57;5.32;;;1.80;;
73219;SDS011;61434;43.538;-5.688;2022-12-20T04:17:23;7.50;;;1.80;;
73219;SDS011;61434;43.538;-5.688;2022-12-20T04:19:48;6.93;;;2.03;;
73219;SDS011;61434;43.538;-5.688;2022-12-20T04:22:14;7.00;;;1.70;;
73219;SDS011;61434;43.538;-5.688;2022-12-20T04:24:39;5.88;;;1.80;;
73219;SDS011;61434;43.538;-5.688;2022-12-20T04:27:05;5.97;;;2.00;;
73219;SDS011;61434;43.538;-5.688;2022-12-20T04:29:30;7.70;;;1.87;;
73219;SDS011;61434;43.538;-5.688;2022-12-20T04:31:56;7.87;;;1.90;;
73219;SDS011;61434;43.538;-5.688;2022-12-20T04:34:21;5.60;;;1.95;;
73219;SDS011;61434;43.538;-5.688;2022-12-20T04:36:47;7.87;;;1.80;;
73219;SDS011;61434;43.538;-5.688;2022-12-20T04:39:12;7.93;;;1.70;;
73219;SDS011;61434;43.538;-5.688;2022-12-20T04:41:38;7.03;;;2.30;;
73219;SDS011;61434;43.538;-5.688;2022-12-20T04:44:03;6.95;;;2.20;;
73219;SDS011;61434;43.538;-5.688;2022-12-20T04:46:29;6.67;;;2.10;;
73219;SDS011;61434;43.538;-5.688;2022-12-20T04:48:54;6.10;;;2.00;;
73219;SDS011;61434;43.538;-5.688;2022-12-20T04:51:20;5.78;;;1.95;;
73219;SDS011;61434;43.538;-5.688;2022-12-20T04:53:45;7.77;;;2.17;;
73219;SDS011;61434;43.538;-5.688;2022-12-20T04:56:12;6.30;;;1.90;;
73219;SDS011;61434;43.538;-5.688;2022-12-20T04:58:49;8.32;;;2.05;;
73219;SDS011;61434;43.538;-5.688;2022-12-20T05:01:16;5.90;;;1.90;;
73219;SDS011;61434;43.538;-5.688;2022-12-20T05:03:43;9.45;;;1.73;;
73219;SDS011;61434;43.538;-5.688;2022-12-20T05:06:09;8.73;;;2.35;;
73219;SDS011;61434;43.538;-5.688;2022-12-20T05:08:35;7.80;;;1.90;;
73219;SDS011;61434;43.538;-5.688;2022-12-20T05:11:01;6.65;;;1.73;;
73219;SDS011;61434;43.538;-5.688;2022-12-20T05:13:28;8.82;;;1.65;;
73219;SDS011;61434;43.538;-5.688;2022-12-20T05:15:54;5.93;;;1.50;;
73219;SDS011;61434;43.538;-5.688;2022-12-20T05:18:20;9.15;;;2.30;;
73219;SDS011;61434;43.538;-5.688;2022-12-20T05:20:46;10.57;;;2.30;;
73219;SDS011;61434;43.538;-5.688;2022-12-20T05:23:13;7.13;;;2.50;;
73219;SDS011;61434;43.538;-5.688;2022-12-20T05:25:57;7.05;;;2.10;;
73219;SDS011;61434;43.538;-5.688;2022-12-20T05:28:41;6.80;;;2.43;;
73219;SDS011;61434;43.538;-5.688;2022-12-20T05:31:07;8.90;;;2.28;;
73219;SDS011;61434;43.538;-5.688;2022-12-20T05:33:32;9.80;;;2.60;;
73219;SDS011;61434;43.538;-5.688;2022-12-20T05:35:58;6.73;;;2.37;;
73219;SDS011;61434;43.538;-5.688;2022-12-20T05:38:23;7.90;;;2.30;;
73219;SDS011;61434;43.538;-5.688;2022-12-20T05:40:49;9.87;;;2.43;;
73219;SDS011;61434;43.538;-5.688;2022-12-20T05:43:15;10.32;;;2.42;;
73219;SDS011;61434;43.538;-5.688;2022-12-20T05:45:49;15.27;;;3.35;;
73219;SDS011;61434;43.538;-5.688;2022-12-20T05:48:16;9.37;;;2.87;;
73219;SDS011;61434;43.538;-5.688;2022-12-20T05:50:43;11.73;;;3.00;;
73219;SDS011;61434;43.538;-5.688;2022-12-20T05:53:10;7.25;;;2.83;;
73219;SDS011;61434;43.538;-5.688;2022-12-20T05:55:36;16.17;;;3.30;;
73219;SDS011;61434;43.538;-5.688;2022-12-20T05:58:04;8.68;;;3.00;;
73219;SDS011;61434;43.538;-5.688;2022-12-20T06:00:30;17.07;;;3.93;;
73219;SDS011;61434;43.538;-5.688;2022-12-20T06:02:55;13.70;;;2.72;;
73219;SDS011;61434;43.538;-5.688;2022-12-20T06:05:21;11.67;;;2.93;;
73219;SDS011;61434;43.538;-5.688;2022-12-20T06:07:46;8.43;;;2.87;;
73219;SDS011;61434;43.538;-5.688;2022-12-20T06:10:13;10.15;;;2.85;;
73219;SDS011;61434;43.538;-5.688;2022-12-20T06:12:38;12.43;;;3.00;;
73219;SDS011;61434;43.538;-5.688;2022-12-20T06:15:04;9.30;;;2.50;;
73219;SDS011;61434;43.538;-5.688;2022-12-20T06:17:29;8.15;;;2.40;;
73219;SDS011;61434;43.538;-5.688;2022-12-20T06:19:55;9.37;;;2.60;;
73219;SDS011;61434;43.538;-5.688;2022-12-20T06:22:20;9.38;;;2.63;;
73219;SDS011;61434;43.538;-5.688;2022-12-20T06:24:47;7.88;;;2.40;;
73219;SDS011;61434;43.538;-5.688;2022-12-20T06:27:12;7.20;;;2.60;;
73219;SDS011;61434;43.538;-5.688;2022-12-20T06:29:38;7.17;;;2.40;;
73219;SDS011;61434;43.538;-5.688;2022-12-20T06:32:03;6.87;;;2.67;;
73219;SDS011;61434;43.538;-5.688;2022-12-20T06:34:29;6.70;;;2.00;;
73219;SDS011;61434;43.538;-5.688;2022-12-20T06:36:55;5.63;;;1.83;;
73219;SDS011;61434;43.538;-5.688;2022-12-20T06:39:21;7.30;;;1.97;;
73219;SDS011;61434;43.538;-5.688;2022-12-20T06:41:46;6.87;;;2.47;;
73219;SDS011;61434;43.538;-5.688;2022-12-20T06:44:12;9.18;;;2.50;;
73219;SDS011;61434;43.538;-5.688;2022-12-20T06:46:37;7.60;;;2.33;;
73219;SDS011;61434;43.538;-5.688;2022-12-20T06:49:03;9.20;;;3.33;;
73219;SDS011;61434;43.538;-5.688;2022-12-20T06:51:28;11.60;;;3.40;;
73219;SDS011;61434;43.538;-5.688;2022-12-20T06:53:54;10.05;;;3.70;;
73219;SDS011;61434;43.538;-5.688;2022-12-20T06:56:19;12.07;;;3.53;;
73219;SDS011;61434;43.538;-5.688;2022-12-20T06:58:45;10.67;;;3.97;;
73219;SDS011;61434;43.538;-5.688;2022-12-20T07:01:11;9.77;;;3.75;;
73219;SDS011;61434;43.538;-5.688;2022-12-20T07:03:37;8.00;;;3.20;;
73219;SDS011;61434;43.538;-5.688;2022-12-20T07:06:02;9.13;;;2.53;;
73219;SDS011;61434;43.538;-5.688;2022-12-20T07:08:28;6.87;;;2.20;;
73219;SDS011;61434;43.538;-5.688;2022-12-20T07:10:53;7.77;;;1.93;;
73219;SDS011;61434;43.538;-5.688;2022-12-20T07:13:19;5.60;;;1.50;;
73219;SDS011;61434;43.538;-5.688;2022-12-20T07:15:44;6.67;;;1.60;;
73219;SDS011;61434;43.538;-5.688;2022-12-20T07:18:10;6.40;;;1.65;;
73219;SDS011;61434;43.538;-5.688;2022-12-20T07:20:35;5.67;;;1.60;;
73219;SDS011;61434;43.538;-5.688;2022-12-20T07:23:01;10.93;;;1.93;;
73219;SDS011;61434;43.538;-5.688;2022-12-20T07:25:27;7.00;;;1.50;;
73219;SDS011;61434;43.538;-5.688;2022-12-20T07:27:53;6.87;;;2.20;;
73219;SDS011;61434;43.538;-5.688;2022-12-20T07:30:18;7.90;;;2.00;;
73219;SDS011;61434;43.538;-5.688;2022-12-20T07:32:45;6.68;;;1.73;;
73219;SDS011;61434;43.538;-5.688;2022-12-20T07:35:12;6.73;;;1.90;;
73219;SDS011;61434;43.538;-5.688;2022-12-20T07:37:38;8.85;;;2.20;;
73219;SDS011;61434;43.538;-5.688;2022-12-20T07:40:03;6.43;;;2.47;;
73219;SDS011;61434;43.538;-5.688;2022-12-20T07:42:30;8.85;;;2.20;;
73219;SDS011;61434;43.538;-5.688;2022-12-20T07:44:56;7.53;;;2.38;;
73219;SDS011;61434;43.538;-5.688;2022-12-20T07:47:21;7.73;;;2.00;;
73219;SDS011;61434;43.538;-5.688;2022-12-20T07:49:47;6.40;;;1.70;;
73219;SDS011;61434;43.538;-5.688;2022-12-20T07:52:13;8.35;;;2.33;;
73219;SDS011;61434;43.538;-5.688;2022-12-20T07:54:42;6.85;;;2.10;;
73219;SDS011;61434;43.538;-5.688;2022-12-20T07:57:24;6.93;;;2.10;;
73219;SDS011;61434;43.538;-5.688;2022-12-20T07:59:55;10.80;;;2.50;;
73219;SDS011;61434;43.538;-5.688;2022-12-20T08:02:25;9.27;;;2.23;;
73219;SDS011;61434;43.538;-5.688;2022-12-20T08:04:55;7.43;;;2.15;;
73219;SDS011;61434;43.538;-5.688;2022-12-20T08:07:21;5.60;;;1.75;;
73219;SDS011;61434;43.538;-5.688;2022-12-20T08:09:47;7.88;;;1.83;;
73219;SDS011;61434;43.538;-5.688;2022-12-20T08:12:13;6.87;;;1.80;;
73219;SDS011;61434;43.538;-5.688;2022-12-20T08:14:41;5.22;;;1.63;;
73219;SDS011;61434;43.538;-5.688;2022-12-20T08:17:07;5.53;;;1.40;;
73219;SDS011;61434;43.538;-5.688;2022-12-20T08:19:33;6.38;;;1.40;;
73219;SDS011;61434;43.538;-5.688;2022-12-20T08:21:58;5.63;;;1.60;;
73219;SDS011;61434;43.538;-5.688;2022-12-20T08:24:24;5.40;;;1.80;;
73219;SDS011;61434;43.538;-5.688;2022-12-20T08:26:49;5.60;;;1.52;;
73219;SDS011;61434;43.538;-5.688;2022-12-20T08:29:15;4.53;;;1.47;;
73219;SDS011;61434;43.538;-5.688;2022-12-20T08:31:40;4.40;;;1.40;;
73219;SDS011;61434;43.538;-5.688;2022-12-20T08:34:06;5.65;;;1.50;;
73219;SDS011;61434;43.538;-5.688;2022-12-20T08:36:32;11.00;;;1.57;;
73219;SDS011;61434;43.538;-5.688;2022-12-20T08:39:00;4.35;;;1.25;;
73219;SDS011;61434;43.538;-5.688;2022-12-20T08:41:27;5.50;;;1.30;;
73219;SDS011;61434;43.538;-5.688;2022-12-20T08:43:53;5.63;;;1.90;;
73219;SDS011;61434;43.538;-5.688;2022-12-20T08:46:18;5.47;;;1.90;;
73219;SDS011;61434;43.538;-5.688;2022-12-20T08:48:44;5.78;;;1.50;;
73219;SDS011;61434;43.538;-5.688;2022-12-20T08:51:09;7.63;;;2.10;;
73219;SDS011;61434;43.538;-5.688;2022-12-20T08:53:36;6.25;;;2.08;;
73219;SDS011;61434;43.538;-5.688;2022-12-20T08:56:09;5.03;;;1.80;;
73219;SDS011;61434;43.538;-5.688;2022-12-20T08:58:35;6.80;;;2.10;;
73219;SDS011;61434;43.538;-5.688;2022-12-20T09:01:03;10.10;;;2.40;;
73219;SDS011;61434;43.538;-5.688;2022-12-20T09:03:30;10.90;;;2.90;;
73219;SDS011;61434;43.538;-5.688;2022-12-20T09:05:56;6.95;;;2.25;;
73219;SDS011;61434;43.538;-5.688;2022-12-20T09:08:22;9.15;;;1.92;;
73219;SDS011;61434;43.538;-5.688;2022-12-20T09:10:47;6.77;;;1.50;;
73219;SDS011;61434;43.538;-5.688;2022-12-20T09:13:13;4.70;;;1.20;;
73219;SDS011;61434;43.538;-5.688;2022-12-20T09:15:38;6.03;;;1.30;;
73219;SDS011;61434;43.538;-5.688;2022-12-20T09:18:04;6.55;;;1.00;;
73219;SDS011;61434;43.538;-5.688;2022-12-20T09:20:29;5.40;;;1.17;;
73219;SDS011;61434;43.538;-5.688;2022-12-20T09:22:56;5.45;;;1.20;;
73219;SDS011;61434;43.538;-5.688;2022-12-20T09:25:23;7.63;;;1.20;;
73219;SDS011;61434;43.538;-5.688;2022-12-20T09:27:49;6.32;;;1.63;;
73219;SDS011;61434;43.538;-5.688;2022-12-20T09:30:15;8.23;;;1.70;;
73219;SDS011;61434;43.538;-5.688;2022-12-20T09:32:40;6.25;;;1.33;;
73219;SDS011;61434;43.538;-5.688;2022-12-20T09:35:06;4.47;;;1.37;;
73219;SDS011;61434;43.538;-5.688;2022-12-20T09:37:31;5.73;;;1.47;;
73219;SDS011;61434;43.538;-5.688;2022-12-20T09:39:57;6.32;;;1.60;;
73219;SDS011;61434;43.538;-5.688;2022-12-20T09:42:25;6.23;;;1.53;;
73219;SDS011;61434;43.538;-5.688;2022-12-20T09:44:54;6.05;;;1.67;;
73219;SDS011;61434;43.538;-5.688;2022-12-20T09:47:27;5.68;;;1.80;;
73219;SDS011;61434;43.538;-5.688;2022-12-20T09:49:54;6.35;;;1.52;;
73219;SDS011;61434;43.538;-5.688;2022-12-20T09:55:28;6.93;;;1.90;;
73219;SDS011;61434;43.538;-5.688;2022-12-20T10:01:23;7.05;;;2.00;;
73219;SDS011;61434;43.538;-5.688;2022-12-20T10:03:51;5.25;;;2.10;;
73219;SDS011;61434;43.538;-5.688;2022-12-20T10:23:22;8.90;;;2.40;;
73219;SDS011;61434;43.538;-5.688;2022-12-20T10:25:53;7.18;;;2.75;;
73219;SDS011;61434;43.538;-5.688;2022-12-20T10:28:28;7.93;;;3.42;;
73219;SDS011;61434;43.538;-5.688;2022-12-20T10:31:02;8.50;;;3.25;;
73219;SDS011;61434;43.538;-5.688;2022-12-20T10:33:31;15.60;;;6.40;;
73219;SDS011;61434;43.538;-5.688;2022-12-20T10:38:59;10.98;;;4.43;;
73219;SDS011;61434;43.538;-5.688;2022-12-20T10:41:31;12.90;;;4.00;;
73219;SDS011;61434;43.538;-5.688;2022-12-20T10:44:28;10.90;;;4.13;;
73219;SDS011;61434;43.538;-5.688;2022-12-20T10:46:55;8.63;;;3.30;;
73219;SDS011;61434;43.538;-5.688;2022-12-20T10:49:38;7.27;;;2.57;;
73219;SDS011;61434;43.538;-5.688;2022-12-20T10:57:17;8.25;;;3.20;;
73219;SDS011;61434;43.538;-5.688;2022-12-20T10:59:58;8.70;;;3.03;;
73219;SDS011;61434;43.538;-5.688;2022-12-20T11:02:30;12.73;;;3.40;;
73219;SDS011;61434;43.538;-5.688;2022-12-20T11:07:35;10.20;;;3.83;;
73219;SDS011;61434;43.538;-5.688;2022-12-20T11:12:54;12.48;;;3.60;;
73219;SDS011;61434;43.538;-5.688;2022-12-20T11:15:30;9.10;;;3.50;;
73219;SDS011;61434;43.538;-5.688;2022-12-20T11:17:58;9.02;;;3.33;;
73219;SDS011;61434;43.538;-5.688;2022-12-20T11:20:34;9.93;;;3.08;;
73219;SDS011;61434;43.538;-5.688;2022-12-20T11:25:49;9.68;;;3.17;;
73219;SDS011;61434;43.538;-5.688;2022-12-20T11:28:37;7.53;;;2.80;;
73219;SDS011;61434;43.538;-5.688;2022-12-20T11:33:57;7.00;;;2.53;;
73219;SDS011;61434;43.538;-5.688;2022-12-20T11:36:46;6.95;;;2.53;;
73219;SDS011;61434;43.538;-5.688;2022-12-20T11:39:29;7.63;;;2.40;;
73219;SDS011;61434;43.538;-5.688;2022-12-20T11:47:29;7.35;;;2.10;;
73219;SDS011;61434;43.538;-5.688;2022-12-20T11:50:30;8.27;;;2.58;;
73219;SDS011;61434;43.538;-5.688;2022-12-20T11:53:12;7.65;;;2.80;;
73219;SDS011;61434;43.538;-5.688;2022-12-20T11:55:43;7.53;;;2.80;;
73219;SDS011;61434;43.538;-5.688;2022-12-20T11:58:21;8.05;;;3.47;;
73219;SDS011;61434;43.538;-5.688;2022-12-20T12:00:56;9.52;;;4.47;;
73219;SDS011;61434;43.538;-5.688;2022-12-20T12:03:33;9.50;;;5.22;;
73219;SDS011;61434;43.538;-5.688;2022-12-20T12:06:10;12.38;;;4.75;;
73219;SDS011;61434;43.538;-5.688;2022-12-20T12:11:48;10.05;;;5.45;;
73219;SDS011;61434;43.538;-5.688;2022-12-20T12:14:26;9.55;;;4.60;;
73219;SDS011;61434;43.538;-5.688;2022-12-20T12:17:11;9.82;;;3.40;;
73219;SDS011;61434;43.538;-5.688;2022-12-20T12:19:45;8.45;;;3.40;;
73219;SDS011;61434;43.538;-5.688;2022-12-20T12:22:19;8.47;;;3.27;;
73219;SDS011;61434;43.538;-5.688;2022-12-20T12:24:53;8.10;;;3.22;;
73219;SDS011;61434;43.538;-5.688;2022-12-20T12:27:23;7.88;;;3.42;;
73219;SDS011;61434;43.538;-5.688;2022-12-20T12:29:54;9.93;;;4.30;;
73219;SDS011;61434;43.538;-5.688;2022-12-20T12:38:13;14.10;;;5.70;;
73219;SDS011;61434;43.538;-5.688;2022-12-20T12:43:46;10.10;;;4.63;;
73219;SDS011;61434;43.538;-5.688;2022-12-20T12:46:28;10.63;;;3.83;;
73219;SDS011;61434;43.538;-5.688;2022-12-20T12:51:36;9.27;;;4.28;;
73219;SDS011;61434;43.538;-5.688;2022-12-20T12:56:40;9.88;;;3.60;;
73219;SDS011;61434;43.538;-5.688;2022-12-20T12:59:18;7.22;;;3.33;;
73219;SDS011;61434;43.538;-5.688;2022-12-20T13:11:51;10.52;;;4.18;;
73219;SDS011;61434;43.538;-5.688;2022-12-20T13:16:53;6.82;;;3.67;;
73219;SDS011;61434;43.538;-5.688;2022-12-20T13:19:42;7.60;;;3.10;;
73219;SDS011;61434;43.538;-5.688;2022-12-20T13:29:52;6.60;;;3.15;;
73219;SDS011;61434;43.538;-5.688;2022-12-20T13:45:46;9.53;;;4.10;;
73219;SDS011;61434;43.538;-5.688;2022-12-20T13:48:19;10.73;;;4.72;;
73219;SDS011;61434;43.538;-5.688;2022-12-20T13:50:52;10.73;;;4.70;;
73219;SDS011;61434;43.538;-5.688;2022-12-20T13:53:20;9.93;;;4.50;;
73219;SDS011;61434;43.538;-5.688;2022-12-20T13:55:47;11.70;;;4.70;;
73219;SDS011;61434;43.538;-5.688;2022-12-20T14:00:44;9.35;;;4.40;;
73219;SDS011;61434;43.538;-5.688;2022-12-20T14:03:29;10.68;;;4.68;;
73219;SDS011;61434;43.538;-5.688;2022-12-20T14:06:00;11.63;;;4.28;;
73219;SDS011;61434;43.538;-5.688;2022-12-20T14:08:29;9.18;;;4.55;;
73219;SDS011;61434;43.538;-5.688;2022-12-20T14:11:07;8.93;;;3.30;;
73219;SDS011;61434;43.538;-5.688;2022-12-20T14:13:36;9.85;;;2.95;;
73219;SDS011;61434;43.538;-5.688;2022-12-20T14:16:15;10.18;;;3.58;;
73219;SDS011;61434;43.538;-5.688;2022-12-20T14:18:46;9.00;;;3.50;;
73219;SDS011;61434;43.538;-5.688;2022-12-20T14:21:13;11.52;;;4.07;;
73219;SDS011;61434;43.538;-5.688;2022-12-20T14:23:39;10.25;;;3.92;;
73219;SDS011;61434;43.538;-5.688;2022-12-20T14:26:13;10.45;;;4.20;;
73219;SDS011;61434;43.538;-5.688;2022-12-20T14:28:42;13.00;;;3.70;;
73219;SDS011;61434;43.538;-5.688;2022-12-20T14:31:26;10.73;;;3.80;;
73219;SDS011;61434;43.538;-5.688;2022-12-20T14:34:18;11.30;;;3.92;;
73219;SDS011;61434;43.538;-5.688;2022-12-20T14:36:49;13.13;;;2.97;;
73219;SDS011;61434;43.538;-5.688;2022-12-20T14:39:27;7.68;;;2.78;;
73219;SDS011;61434;43.538;-5.688;2022-12-20T14:44:24;9.20;;;2.90;;
73219;SDS011;61434;43.538;-5.688;2022-12-20T14:46:52;8.68;;;2.20;;
73219;SDS011;61434;43.538;-5.688;2022-12-20T14:49:21;7.53;;;2.30;;
73219;SDS011;61434;43.538;-5.688;2022-12-20T14:51:48;8.45;;;2.22;;
73219;SDS011;61434;43.538;-5.688;2022-12-20T14:54:27;7.15;;;2.33;;
73219;SDS011;61434;43.538;-5.688;2022-12-20T14:56:53;9.37;;;1.60;;
73219;SDS011;61434;43.538;-5.688;2022-12-20T14:59:24;8.75;;;1.80;;
73219;SDS011;61434;43.538;-5.688;2022-12-20T15:01:51;9.57;;;2.13;;
73219;SDS011;61434;43.538;-5.688;2022-12-20T15:04:39;7.32;;;1.85;;
73219;SDS011;61434;43.538;-5.688;2022-12-20T15:07:03;11.57;;;1.88;;
73219;SDS011;61434;43.538;-5.688;2022-12-20T15:09:29;7.27;;;1.57;;
73219;SDS011;61434;43.538;-5.688;2022-12-20T15:11:55;8.27;;;1.58;;
73219;SDS011;61434;43.538;-5.688;2022-12-20T15:16:58;7.55;;;1.52;;
73219;SDS011;61434;43.538;-5.688;2022-12-20T15:19:23;12.48;;;1.90;;
73219;SDS011;61434;43.538;-5.688;2022-12-20T15:21:49;9.07;;;1.93;;
73219;SDS011;61434;43.538;-5.688;2022-12-20T15:24:16;8.38;;;1.60;;
73219;SDS011;61434;43.538;-5.688;2022-12-20T15:26:45;7.73;;;1.53;;
73219;SDS011;61434;43.538;-5.688;2022-12-20T15:29:16;6.45;;;1.48;;
73219;SDS011;61434;43.538;-5.688;2022-12-20T15:31:43;8.20;;;1.52;;
73219;SDS011;61434;43.538;-5.688;2022-12-20T15:34:14;8.60;;;1.40;;
73219;SDS011;61434;43.538;-5.688;2022-12-20T15:36:48;8.63;;;1.45;;
73219;SDS011;61434;43.538;-5.688;2022-12-20T15:39:13;10.37;;;1.50;;
73219;SDS011;61434;43.538;-5.688;2022-12-20T15:41:39;10.30;;;1.87;;
73219;SDS011;61434;43.538;-5.688;2022-12-20T15:44:29;11.45;;;1.48;;
73219;SDS011;61434;43.538;-5.688;2022-12-20T15:46:55;7.75;;;2.03;;
73219;SDS011;61434;43.538;-5.688;2022-12-20T15:49:25;10.10;;;1.63;;
73219;SDS011;61434;43.538;-5.688;2022-12-20T15:51:53;9.57;;;1.40;;
73219;SDS011;61434;43.538;-5.688;2022-12-20T15:54:24;8.02;;;1.92;;
73219;SDS011;61434;43.538;-5.688;2022-12-20T15:56:55;10.47;;;1.80;;
73219;SDS011;61434;43.538;-5.688;2022-12-20T15:59:21;8.98;;;1.52;;
73219;SDS011;61434;43.538;-5.688;2022-12-20T16:01:47;9.17;;;2.40;;
73219;SDS011;61434;43.538;-5.688;2022-12-20T16:04:14;9.73;;;1.40;;
73219;SDS011;61434;43.538;-5.688;2022-12-20T16:06:42;7.88;;;1.50;;
73219;SDS011;61434;43.538;-5.688;2022-12-20T16:09:09;10.60;;;1.40;;
73219;SDS011;61434;43.538;-5.688;2022-12-20T16:11:34;9.80;;;1.45;;
73219;SDS011;61434;43.538;-5.688;2022-12-20T16:14:00;7.90;;;1.20;;
73219;SDS011;61434;43.538;-5.688;2022-12-20T16:16:35;9.32;;;1.48;;
73219;SDS011;61434;43.538;-5.688;2022-12-20T16:19:01;7.03;;;1.17;;
73219;SDS011;61434;43.538;-5.688;2022-12-20T16:21:31;8.40;;;1.40;;
73219;SDS011;61434;43.538;-5.688;2022-12-20T16:24:08;10.20;;;1.70;;
73219;SDS011;61434;43.538;-5.688;2022-12-20T16:26:36;11.40;;;1.65;;
73219;SDS011;61434;43.538;-5.688;2022-12-20T16:29:02;9.37;;;1.30;;
73219;SDS011;61434;43.538;-5.688;2022-12-20T16:31:28;6.43;;;1.40;;
73219;SDS011;61434;43.538;-5.688;2022-12-20T16:33:55;10.60;;;1.70;;
73219;SDS011;61434;43.538;-5.688;2022-12-20T16:36:22;11.85;;;1.88;;
73219;SDS011;61434;43.538;-5.688;2022-12-20T16:38:49;8.68;;;1.45;;
73219;SDS011;61434;43.538;-5.688;2022-12-20T16:41:16;8.45;;;1.40;;
73219;SDS011;61434;43.538;-5.688;2022-12-20T16:43:44;8.73;;;1.40;;
73219;SDS011;61434;43.538;-5.688;2022-12-20T16:46:20;10.05;;;1.50;;
73219;SDS011;61434;43.538;-5.688;2022-12-20T16:48:46;10.05;;;1.65;;
73219;SDS011;61434;43.538;-5.688;2022-12-20T16:53:54;10.88;;;1.98;;
73219;SDS011;61434;43.538;-5.688;2022-12-20T16:56:22;7.57;;;1.47;;
73219;SDS011;61434;43.538;-5.688;2022-12-20T16:58:48;9.80;;;1.80;;